sensor_id;sensor_type;location;lat;lon;timestamp;pressure;altitude;pressure_sealevel;temperature;humidity
64853;BME280;56050;55.558;-4.644;2024-02-14T00:00:11;100635.63;;;6.75;67.96
64853;BME280;56050;55.558;-4.644;2024-02-14T00:02:41;100630.25;;;6.75;67.98
64853;BME280;56050;55.558;-4.644;2024-02-14T00:05:08;100628.00;;;6.77;68.02
64853;BME280;56050;55.558;-4.644;2024-02-14T00:07:38;100632.22;;;6.78;67.97
64853;BME280;56050;55.558;-4.644;2024-02-14T00:10:05;100641.81;;;6.79;67.93
64853;BME280;56050;55.558;-4.644;2024-02-14T00:12:31;100639.13;;;6.79;67.82
64853;BME280;56050;55.558;-4.644;2024-02-14T00:14:56;100632.94;;;6.75;67.72
64853;BME280;56050;55.558;-4.644;2024-02-14T00:17:23;100635.56;;;6.71;67.78
64853;BME280;56050;55.558;-4.644;2024-02-14T00:19:48;100631.38;;;6.70;67.83
64853;BME280;56050;55.558;-4.644;2024-02-14T00:22:14;100629.47;;;6.71;68.04
64853;BME280;56050;55.558;-4.644;2024-02-14T00:24:39;100633.31;;;6.73;68.08
64853;BME280;56050;55.558;-4.644;2024-02-14T00:27:05;100632.59;;;6.76;68.17
64853;BME280;56050;55.558;-4.644;2024-02-14T00:29:31;100625.38;;;6.80;67.95
64853;BME280;56050;55.558;-4.644;2024-02-14T00:31:59;100630.00;;;6.83;67.85
64853;BME280;56050;55.558;-4.644;2024-02-14T00:34:25;100626.59;;;6.86;67.78
64853;BME280;56050;55.558;-4.644;2024-02-14T00:36:50;100624.66;;;6.83;67.73
64853;BME280;56050;55.558;-4.644;2024-02-14T00:39:16;100630.78;;;6.84;67.86
64853;BME280;56050;55.558;-4.644;2024-02-14T00:41:42;100624.31;;;6.85;68.00
64853;BME280;56050;55.558;-4.644;2024-02-14T00:44:07;100622.06;;;6.90;67.95
64853;BME280;56050;55.558;-4.644;2024-02-14T00:46:33;100626.69;;;6.93;68.01
64853;BME280;56050;55.558;-4.644;2024-02-14T00:48:58;100627.50;;;6.97;67.93
64853;BME280;56050;55.558;-4.644;2024-02-14T00:51:24;100620.28;;;7.01;67.86
64853;BME280;56050;55.558;-4.644;2024-02-14T00:53:51;100623.78;;;7.05;67.92
64853;BME280;56050;55.558;-4.644;2024-02-14T00:56:17;100629.19;;;7.09;67.99
64853;BME280;56050;55.558;-4.644;2024-02-14T00:58:43;100618.94;;;7.15;67.96
64853;BME280;56050;55.558;-4.644;2024-02-14T01:01:08;100632.38;;;7.22;67.75
64853;BME280;56050;55.558;-4.644;2024-02-14T01:03:34;100630.53;;;7.26;67.70
64853;BME280;56050;55.558;-4.644;2024-02-14T01:06:00;100626.34;;;7.28;67.75
64853;BME280;56050;55.558;-4.644;2024-02-14T01:08:25;100622.16;;;7.31;67.75
64853;BME280;56050;55.558;-4.644;2024-02-14T01:10:50;100629.53;;;7.37;67.86
64853;BME280;56050;55.558;-4.644;2024-02-14T01:13:18;100621.50;;;7.41;67.64
64853;BME280;56050;55.558;-4.644;2024-02-14T01:15:43;100625.00;;;7.45;67.66
64853;BME280;56050;55.558;-4.644;2024-02-14T01:18:08;100621.22;;;7.49;67.67
64853;BME280;56050;55.558;-4.644;2024-02-14T01:20:35;100623.53;;;7.51;67.79
64853;BME280;56050;55.558;-4.644;2024-02-14T01:23:00;100628.16;;;7.54;67.64
64853;BME280;56050;55.558;-4.644;2024-02-14T01:25:26;100618.97;;;7.55;67.71
64853;BME280;56050;55.558;-4.644;2024-02-14T01:27:51;100622.81;;;7.57;67.66
64853;BME280;56050;55.558;-4.644;2024-02-14T01:30:18;100618.25;;;7.58;67.81
64853;BME280;56050;55.558;-4.644;2024-02-14T01:32:44;100619.78;;;7.59;67.80
64853;BME280;56050;55.558;-4.644;2024-02-14T01:35:09;100625.16;;;7.62;67.69
64853;BME280;56050;55.558;-4.644;2024-02-14T01:37:35;100632.47;;;7.65;67.80
64853;BME280;56050;55.558;-4.644;2024-02-14T01:40:01;100621.75;;;7.65;67.81
64853;BME280;56050;55.558;-4.644;2024-02-14T01:42:26;100628.72;;;7.70;67.79
64853;BME280;56050;55.558;-4.644;2024-02-14T01:44:53;100634.47;;;7.72;67.63
64853;BME280;56050;55.558;-4.644;2024-02-14T01:47:20;100632.97;;;7.75;67.60
64853;BME280;56050;55.558;-4.644;2024-02-14T01:49:45;100624.56;;;7.80;67.67
64853;BME280;56050;55.558;-4.644;2024-02-14T01:52:12;100626.91;;;7.81;67.53
64853;BME280;56050;55.558;-4.644;2024-02-14T01:54:39;100627.25;;;7.80;67.52
64853;BME280;56050;55.558;-4.644;2024-02-14T01:57:04;100625.72;;;7.79;67.63
64853;BME280;56050;55.558;-4.644;2024-02-14T01:59:30;100624.56;;;7.80;67.57
64853;BME280;56050;55.558;-4.644;2024-02-14T02:01:55;100630.72;;;7.80;67.66
64853;BME280;56050;55.558;-4.644;2024-02-14T02:04:21;100637.25;;;7.83;67.67
64853;BME280;56050;55.558;-4.644;2024-02-14T02:06:47;100633.84;;;7.86;67.69
64853;BME280;56050;55.558;-4.644;2024-02-14T02:09:12;100640.38;;;7.88;67.68
64853;BME280;56050;55.558;-4.644;2024-02-14T02:11:48;100644.59;;;7.89;67.55
64853;BME280;56050;55.558;-4.644;2024-02-14T02:14:14;100643.81;;;7.89;67.62
64853;BME280;56050;55.558;-4.644;2024-02-14T02:16:39;100644.94;;;7.88;67.54
64853;BME280;56050;55.558;-4.644;2024-02-14T02:19:05;100644.19;;;7.87;67.56
64853;BME280;56050;55.558;-4.644;2024-02-14T02:21:34;100639.59;;;7.88;67.47
64853;BME280;56050;55.558;-4.644;2024-02-14T02:24:00;100625.41;;;7.87;67.57
64853;BME280;56050;55.558;-4.644;2024-02-14T02:26:26;100635.41;;;7.90;67.70
64853;BME280;56050;55.558;-4.644;2024-02-14T02:28:51;100622.75;;;7.91;67.58
64853;BME280;56050;55.558;-4.644;2024-02-14T02:31:17;100621.63;;;7.92;67.58
64853;BME280;56050;55.558;-4.644;2024-02-14T02:33:42;100618.94;;;7.92;67.77
64853;BME280;56050;55.558;-4.644;2024-02-14T02:36:08;100612.81;;;7.91;67.70
64853;BME280;56050;55.558;-4.644;2024-02-14T02:38:35;100617.78;;;7.89;67.75
64853;BME280;56050;55.558;-4.644;2024-02-14T02:41:02;100613.94;;;7.87;67.78
64853;BME280;56050;55.558;-4.644;2024-02-14T02:43:28;100612.00;;;7.87;67.90
64853;BME280;56050;55.558;-4.644;2024-02-14T02:45:54;100613.94;;;7.90;68.01
64853;BME280;56050;55.558;-4.644;2024-02-14T02:48:19;100601.31;;;7.91;68.04
64853;BME280;56050;55.558;-4.644;2024-02-14T02:50:49;100602.47;;;7.93;68.15
64853;BME280;56050;55.558;-4.644;2024-02-14T02:53:15;100601.34;;;7.94;68.07
64853;BME280;56050;55.558;-4.644;2024-02-14T02:55:41;100596.75;;;7.98;68.12
64853;BME280;56050;55.558;-4.644;2024-02-14T02:58:07;100592.94;;;7.99;67.93
64853;BME280;56050;55.558;-4.644;2024-02-14T03:00:32;100595.63;;;7.99;67.90
64853;BME280;56050;55.558;-4.644;2024-02-14T03:02:58;100597.16;;;7.97;67.93
64853;BME280;56050;55.558;-4.644;2024-02-14T03:05:24;100587.94;;;7.94;67.88
64853;BME280;56050;55.558;-4.644;2024-02-14T03:07:49;100583.69;;;7.93;67.93
64853;BME280;56050;55.558;-4.644;2024-02-14T03:10:16;100584.84;;;7.92;67.97
64853;BME280;56050;55.558;-4.644;2024-02-14T03:12:49;100581.00;;;7.93;67.93
64853;BME280;56050;55.558;-4.644;2024-02-14T03:15:15;100579.13;;;7.94;67.98
64853;BME280;56050;55.558;-4.644;2024-02-14T03:17:41;100571.44;;;7.92;67.91
64853;BME280;56050;55.558;-4.644;2024-02-14T03:20:08;100578.31;;;7.90;68.03
64853;BME280;56050;55.558;-4.644;2024-02-14T03:22:42;100566.44;;;7.91;67.99
64853;BME280;56050;55.558;-4.644;2024-02-14T03:25:19;100566.81;;;7.89;67.95
64853;BME280;56050;55.558;-4.644;2024-02-14T03:27:44;100559.91;;;7.88;68.13
64853;BME280;56050;55.558;-4.644;2024-02-14T03:30:16;100561.03;;;7.87;68.06
64853;BME280;56050;55.558;-4.644;2024-02-14T03:32:45;100554.53;;;7.88;68.08
64853;BME280;56050;55.558;-4.644;2024-02-14T03:35:11;100561.47;;;7.89;68.13
64853;BME280;56050;55.558;-4.644;2024-02-14T03:37:38;100559.91;;;7.88;68.07
64853;BME280;56050;55.558;-4.644;2024-02-14T03:40:05;100563.38;;;7.89;68.17
64853;BME280;56050;55.558;-4.644;2024-02-14T03:42:32;100571.03;;;7.90;68.25
64853;BME280;56050;55.558;-4.644;2024-02-14T03:44:58;100576.03;;;7.92;68.19
64853;BME280;56050;55.558;-4.644;2024-02-14T03:47:30;100571.84;;;7.94;68.11
64853;BME280;56050;55.558;-4.644;2024-02-14T03:49:57;100560.38;;;7.97;68.19
64853;BME280;56050;55.558;-4.644;2024-02-14T03:52:22;100561.16;;;8.01;68.16
64853;BME280;56050;55.558;-4.644;2024-02-14T03:54:48;100559.25;;;8.02;68.07
64853;BME280;56050;55.558;-4.644;2024-02-14T03:57:13;100555.81;;;8.05;68.12
64853;BME280;56050;55.558;-4.644;2024-02-14T03:59:39;100550.84;;;8.07;68.08
64853;BME280;56050;55.558;-4.644;2024-02-14T04:02:04;100554.31;;;8.07;68.02
64853;BME280;56050;55.558;-4.644;2024-02-14T04:04:32;100558.16;;;8.10;68.00
64853;BME280;56050;55.558;-4.644;2024-02-14T04:06:58;100555.84;;;8.12;68.06
64853;BME280;56050;55.558;-4.644;2024-02-14T04:09:26;100548.22;;;8.14;68.11
64853;BME280;56050;55.558;-4.644;2024-02-14T04:11:51;100540.97;;;8.14;68.04
64853;BME280;56050;55.558;-4.644;2024-02-14T04:14:17;100536.72;;;8.13;68.17
64853;BME280;56050;55.558;-4.644;2024-02-14T04:16:43;100540.53;;;8.12;68.34
64853;BME280;56050;55.558;-4.644;2024-02-14T04:19:08;100550.13;;;8.13;68.18
64853;BME280;56050;55.558;-4.644;2024-02-14T04:21:37;100554.72;;;8.13;67.94
64853;BME280;56050;55.558;-4.644;2024-02-14T04:24:03;100551.28;;;8.12;68.15
64853;BME280;56050;55.558;-4.644;2024-02-14T04:26:28;100555.50;;;8.13;68.20
64853;BME280;56050;55.558;-4.644;2024-02-14T04:28:54;100550.50;;;8.12;68.09
64853;BME280;56050;55.558;-4.644;2024-02-14T04:31:19;100551.66;;;8.11;68.18
64853;BME280;56050;55.558;-4.644;2024-02-14T04:33:45;100553.94;;;8.09;68.18
64853;BME280;56050;55.558;-4.644;2024-02-14T04:36:17;100547.03;;;8.08;68.34
64853;BME280;56050;55.558;-4.644;2024-02-14T04:38:43;100545.13;;;8.08;68.29
64853;BME280;56050;55.558;-4.644;2024-02-14T04:41:09;100541.28;;;8.09;68.26
64853;BME280;56050;55.558;-4.644;2024-02-14T04:43:35;100542.03;;;8.06;68.13
64853;BME280;56050;55.558;-4.644;2024-02-14T04:46:01;100532.81;;;8.04;68.27
64853;BME280;56050;55.558;-4.644;2024-02-14T04:48:26;100539.31;;;7.99;68.33
64853;BME280;56050;55.558;-4.644;2024-02-14T04:50:53;100533.16;;;7.95;68.36
64853;BME280;56050;55.558;-4.644;2024-02-14T04:53:18;100530.44;;;7.92;68.42
64853;BME280;56050;55.558;-4.644;2024-02-14T04:55:45;100527.72;;;7.88;68.62
64853;BME280;56050;55.558;-4.644;2024-02-14T04:58:10;100534.59;;;7.86;68.69
64853;BME280;56050;55.558;-4.644;2024-02-14T05:00:36;100531.91;;;7.82;68.76
64853;BME280;56050;55.558;-4.644;2024-02-14T05:03:01;100529.19;;;7.79;68.75
64853;BME280;56050;55.558;-4.644;2024-02-14T05:05:27;100533.78;;;7.78;68.93
64853;BME280;56050;55.558;-4.644;2024-02-14T05:07:53;100537.22;;;7.75;68.97
64853;BME280;56050;55.558;-4.644;2024-02-14T05:10:18;100524.16;;;7.74;69.07
64853;BME280;56050;55.558;-4.644;2024-02-14T05:12:44;100525.31;;;7.73;69.09
64853;BME280;56050;55.558;-4.644;2024-02-14T05:15:10;100526.44;;;7.72;69.24
64853;BME280;56050;55.558;-4.644;2024-02-14T05:17:37;100531.03;;;7.71;69.22
64853;BME280;56050;55.558;-4.644;2024-02-14T05:20:03;100536.81;;;7.73;69.30
64853;BME280;56050;55.558;-4.644;2024-02-14T05:22:35;100540.25;;;7.74;69.31
64853;BME280;56050;55.558;-4.644;2024-02-14T05:25:01;100536.81;;;7.73;69.23
64853;BME280;56050;55.558;-4.644;2024-02-14T05:27:26;100535.31;;;7.76;69.39
64853;BME280;56050;55.558;-4.644;2024-02-14T05:29:52;100538.72;;;7.76;69.37
64853;BME280;56050;55.558;-4.644;2024-02-14T05:32:17;100537.22;;;7.75;69.36
64853;BME280;56050;55.558;-4.644;2024-02-14T05:34:43;100536.81;;;7.77;69.49
64853;BME280;56050;55.558;-4.644;2024-02-14T05:37:08;100535.31;;;7.79;69.44
64853;BME280;56050;55.558;-4.644;2024-02-14T05:39:33;100538.00;;;7.79;69.21
64853;BME280;56050;55.558;-4.644;2024-02-14T05:41:59;100522.28;;;7.78;69.42
64853;BME280;56050;55.558;-4.644;2024-02-14T05:44:24;100530.69;;;7.76;69.55
64853;BME280;56050;55.558;-4.644;2024-02-14T05:46:52;100526.84;;;7.74;69.57
64853;BME280;56050;55.558;-4.644;2024-02-14T05:49:18;100519.97;;;7.73;69.60
64853;BME280;56050;55.558;-4.644;2024-02-14T05:51:43;100519.53;;;7.70;69.65
64853;BME280;56050;55.558;-4.644;2024-02-14T05:54:09;100523.38;;;7.69;69.66
64853;BME280;56050;55.558;-4.644;2024-02-14T05:56:34;100529.09;;;7.68;69.72
64853;BME280;56050;55.558;-4.644;2024-02-14T05:58:59;100521.81;;;7.68;69.78
64853;BME280;56050;55.558;-4.644;2024-02-14T06:01:25;100526.03;;;7.66;69.90
64853;BME280;56050;55.558;-4.644;2024-02-14T06:03:50;100526.78;;;7.66;69.91
64853;BME280;56050;55.558;-4.644;2024-02-14T06:06:16;100520.28;;;7.64;69.98
64853;BME280;56050;55.558;-4.644;2024-02-14T06:08:41;100518.38;;;7.64;69.92
64853;BME280;56050;55.558;-4.644;2024-02-14T06:11:06;100522.94;;;7.64;69.97
64853;BME280;56050;55.558;-4.644;2024-02-14T06:13:33;100527.91;;;7.62;70.17
64853;BME280;56050;55.558;-4.644;2024-02-14T06:15:59;100526.38;;;7.61;70.15
64853;BME280;56050;55.558;-4.644;2024-02-14T06:18:24;100527.16;;;7.61;70.10
64853;BME280;56050;55.558;-4.644;2024-02-14T06:20:49;100530.59;;;7.62;70.07
64853;BME280;56050;55.558;-4.644;2024-02-14T06:23:15;100532.50;;;7.61;70.04
64853;BME280;56050;55.558;-4.644;2024-02-14T06:25:41;100529.81;;;7.61;70.13
64853;BME280;56050;55.558;-4.644;2024-02-14T06:28:06;100531.00;;;7.64;70.10
64853;BME280;56050;55.558;-4.644;2024-02-14T06:30:31;100534.81;;;7.63;70.00
64853;BME280;56050;55.558;-4.644;2024-02-14T06:32:57;100535.56;;;7.63;69.89
64853;BME280;56050;55.558;-4.644;2024-02-14T06:35:26;100537.88;;;7.61;70.07
64853;BME280;56050;55.558;-4.644;2024-02-14T06:37:51;100542.06;;;7.62;69.90
64853;BME280;56050;55.558;-4.644;2024-02-14T06:40:17;100543.22;;;7.61;69.80
64853;BME280;56050;55.558;-4.644;2024-02-14T06:42:43;100544.75;;;7.59;70.00
64853;BME280;56050;55.558;-4.644;2024-02-14T06:45:08;100548.16;;;7.56;69.80
64853;BME280;56050;55.558;-4.644;2024-02-14T06:47:34;100553.88;;;7.54;70.08
64853;BME280;56050;55.558;-4.644;2024-02-14T06:49:59;100560.00;;;7.55;70.27
64853;BME280;56050;55.558;-4.644;2024-02-14T06:52:25;100551.56;;;7.53;70.31
64853;BME280;56050;55.558;-4.644;2024-02-14T06:54:51;100550.41;;;7.50;70.30
64853;BME280;56050;55.558;-4.644;2024-02-14T06:57:16;100550.75;;;7.49;70.22
64853;BME280;56050;55.558;-4.644;2024-02-14T06:59:43;100551.50;;;7.46;70.21
64853;BME280;56050;55.558;-4.644;2024-02-14T07:02:08;100544.22;;;7.43;70.44
64853;BME280;56050;55.558;-4.644;2024-02-14T07:04:34;100554.94;;;7.43;70.44
64853;BME280;56050;55.558;-4.644;2024-02-14T07:06:59;100553.38;;;7.42;70.45
64853;BME280;56050;55.558;-4.644;2024-02-14T07:09:26;100553.38;;;7.42;70.45
64853;BME280;56050;55.558;-4.644;2024-02-14T07:11:51;100552.25;;;7.43;70.57
64853;BME280;56050;55.558;-4.644;2024-02-14T07:14:19;100551.81;;;7.41;70.47
64853;BME280;56050;55.558;-4.644;2024-02-14T07:16:44;100552.22;;;7.39;70.55
64853;BME280;56050;55.558;-4.644;2024-02-14T07:19:10;100549.88;;;7.38;70.57
64853;BME280;56050;55.558;-4.644;2024-02-14T07:21:35;100558.31;;;7.36;70.62
64853;BME280;56050;55.558;-4.644;2024-02-14T07:24:04;100559.44;;;7.35;70.70
64853;BME280;56050;55.558;-4.644;2024-02-14T07:26:29;100553.72;;;7.37;70.66
64853;BME280;56050;55.558;-4.644;2024-02-14T07:28:54;100559.09;;;7.40;70.69
64853;BME280;56050;55.558;-4.644;2024-02-14T07:31:20;100558.34;;;7.40;70.54
64853;BME280;56050;55.558;-4.644;2024-02-14T07:33:45;100550.63;;;7.35;70.68
64853;BME280;56050;55.558;-4.644;2024-02-14T07:36:13;100555.19;;;7.31;70.71
64853;BME280;56050;55.558;-4.644;2024-02-14T07:38:38;100554.00;;;7.28;70.73
64853;BME280;56050;55.558;-4.644;2024-02-14T07:41:04;100555.09;;;7.24;70.84
64853;BME280;56050;55.558;-4.644;2024-02-14T07:43:29;100559.28;;;7.21;70.91
64853;BME280;56050;55.558;-4.644;2024-02-14T07:45:54;100563.13;;;7.20;70.99
64853;BME280;56050;55.558;-4.644;2024-02-14T07:48:20;100562.69;;;7.18;70.96
64853;BME280;56050;55.558;-4.644;2024-02-14T07:50:47;100563.84;;;7.17;71.04
64853;BME280;56050;55.558;-4.644;2024-02-14T07:53:13;100563.84;;;7.17;71.06
64853;BME280;56050;55.558;-4.644;2024-02-14T07:55:38;100557.72;;;7.17;71.13
64853;BME280;56050;55.558;-4.644;2024-02-14T07:58:05;100554.25;;;7.16;70.96
64853;BME280;56050;55.558;-4.644;2024-02-14T08:00:30;100557.34;;;7.18;71.12
64853;BME280;56050;55.558;-4.644;2024-02-14T08:02:56;100558.88;;;7.19;71.11
64853;BME280;56050;55.558;-4.644;2024-02-14T08:05:21;100558.88;;;7.19;71.28
64853;BME280;56050;55.558;-4.644;2024-02-14T08:07:47;100553.91;;;7.18;71.22
64853;BME280;56050;55.558;-4.644;2024-02-14T08:10:13;100556.97;;;7.20;71.16
64853;BME280;56050;55.558;-4.644;2024-02-14T08:12:39;100552.41;;;7.20;71.18
64853;BME280;56050;55.558;-4.644;2024-02-14T08:15:04;100557.38;;;7.22;71.21
64853;BME280;56050;55.558;-4.644;2024-02-14T08:17:32;100556.66;;;7.25;71.24
64853;BME280;56050;55.558;-4.644;2024-02-14T08:19:58;100549.78;;;7.27;71.29
64853;BME280;56050;55.558;-4.644;2024-02-14T08:22:24;100556.75;;;7.32;71.11
64853;BME280;56050;55.558;-4.644;2024-02-14T08:24:49;100564.41;;;7.33;71.18
64853;BME280;56050;55.558;-4.644;2024-02-14T08:27:15;100568.63;;;7.38;71.14
64853;BME280;56050;55.558;-4.644;2024-02-14T08:29:40;100565.63;;;7.39;71.19
64853;BME280;56050;55.558;-4.644;2024-02-14T08:32:06;100567.91;;;7.41;71.19
64853;BME280;56050;55.558;-4.644;2024-02-14T08:34:31;100562.97;;;7.43;71.13
64853;BME280;56050;55.558;-4.644;2024-02-14T08:36:57;100571.41;;;7.45;71.22
64853;BME280;56050;55.558;-4.644;2024-02-14T08:39:22;100571.03;;;7.46;71.25
64853;BME280;56050;55.558;-4.644;2024-02-14T08:41:47;100570.69;;;7.48;71.19
64853;BME280;56050;55.558;-4.644;2024-02-14T08:44:13;100569.50;;;7.49;71.06
64853;BME280;56050;55.558;-4.644;2024-02-14T08:46:39;100562.63;;;7.48;71.23
64853;BME280;56050;55.558;-4.644;2024-02-14T08:49:07;100562.63;;;7.48;71.31
64853;BME280;56050;55.558;-4.644;2024-02-14T08:51:37;100556.09;;;7.45;71.36
64853;BME280;56050;55.558;-4.644;2024-02-14T08:54:04;100558.41;;;7.47;71.39
64853;BME280;56050;55.558;-4.644;2024-02-14T08:56:31;100560.69;;;7.48;71.48
64853;BME280;56050;55.558;-4.644;2024-02-14T08:59:00;100561.13;;;7.50;71.35
64853;BME280;56050;55.558;-4.644;2024-02-14T09:01:26;100569.94;;;7.51;71.43
64853;BME280;56050;55.558;-4.644;2024-02-14T09:03:51;100573.00;;;7.53;71.38
64853;BME280;56050;55.558;-4.644;2024-02-14T09:06:17;100577.59;;;7.52;71.30
64853;BME280;56050;55.558;-4.644;2024-02-14T09:08:46;100575.69;;;7.53;71.41
64853;BME280;56050;55.558;-4.644;2024-02-14T09:11:11;100573.06;;;7.56;71.45
64853;BME280;56050;55.558;-4.644;2024-02-14T09:13:38;100573.44;;;7.58;71.31
64853;BME280;56050;55.558;-4.644;2024-02-14T09:16:04;100582.66;;;7.61;71.39
64853;BME280;56050;55.558;-4.644;2024-02-14T09:18:31;100579.59;;;7.62;71.46
64853;BME280;56050;55.558;-4.644;2024-02-14T09:20:57;100576.19;;;7.65;71.40
64853;BME280;56050;55.558;-4.644;2024-02-14T09:23:22;100577.78;;;7.70;71.43
64853;BME280;56050;55.558;-4.644;2024-02-14T09:25:48;100577.78;;;7.74;71.32
64853;BME280;56050;55.558;-4.644;2024-02-14T09:28:15;100569.38;;;7.75;71.35
64853;BME280;56050;55.558;-4.644;2024-02-14T09:30:41;100569.78;;;7.77;71.31
64853;BME280;56050;55.558;-4.644;2024-02-14T09:33:07;100569.81;;;7.81;71.38
64853;BME280;56050;55.558;-4.644;2024-02-14T09:35:32;100575.97;;;7.85;71.40
64853;BME280;56050;55.558;-4.644;2024-02-14T09:37:57;100574.50;;;7.91;71.25
64853;BME280;56050;55.558;-4.644;2024-02-14T09:40:24;100568.78;;;7.92;71.19
64853;BME280;56050;55.558;-4.644;2024-02-14T09:42:54;100573.41;;;7.95;71.29
64853;BME280;56050;55.558;-4.644;2024-02-14T09:45:26;100573.78;;;7.97;71.35
64853;BME280;56050;55.558;-4.644;2024-02-14T09:47:53;100573.81;;;8.01;71.27
64853;BME280;56050;55.558;-4.644;2024-02-14T09:50:19;100573.81;;;8.04;71.25
64853;BME280;56050;55.558;-4.644;2024-02-14T09:52:47;100563.88;;;8.05;71.14
64853;BME280;56050;55.558;-4.644;2024-02-14T09:55:15;100567.72;;;8.07;71.26
64853;BME280;56050;55.558;-4.644;2024-02-14T09:57:41;100557.38;;;8.09;71.27
64853;BME280;56050;55.558;-4.644;2024-02-14T10:00:10;100558.16;;;8.10;71.34
64853;BME280;56050;55.558;-4.644;2024-02-14T10:02:36;100556.25;;;8.10;71.45
64853;BME280;56050;55.558;-4.644;2024-02-14T10:05:01;100551.66;;;8.11;71.49
64853;BME280;56050;55.558;-4.644;2024-02-14T10:07:27;100546.28;;;8.11;71.59
64853;BME280;56050;55.558;-4.644;2024-02-14T10:09:53;100547.41;;;8.10;71.70
64853;BME280;56050;55.558;-4.644;2024-02-14T10:12:19;100550.88;;;8.10;71.66
64853;BME280;56050;55.558;-4.644;2024-02-14T10:14:45;100555.84;;;8.12;71.79
64853;BME280;56050;55.558;-4.644;2024-02-14T10:17:17;100565.09;;;8.14;71.69
64853;BME280;56050;55.558;-4.644;2024-02-14T10:19:43;100560.13;;;8.16;71.74
64853;BME280;56050;55.558;-4.644;2024-02-14T10:22:08;100556.69;;;8.19;71.70
64853;BME280;56050;55.558;-4.644;2024-02-14T10:24:34;100557.84;;;8.22;71.66
64853;BME280;56050;55.558;-4.644;2024-02-14T10:27:00;100564.00;;;8.22;71.56
64853;BME280;56050;55.558;-4.644;2024-02-14T10:29:26;100561.72;;;8.24;71.86
64853;BME280;56050;55.558;-4.644;2024-02-14T10:31:52;100559.03;;;8.24;71.95
64853;BME280;56050;55.558;-4.644;2024-02-14T10:34:25;100564.78;;;8.26;71.99
64853;BME280;56050;55.558;-4.644;2024-02-14T10:36:53;100556.72;;;8.26;72.03
64853;BME280;56050;55.558;-4.644;2024-02-14T10:39:22;100562.50;;;8.28;72.20
64853;BME280;56050;55.558;-4.644;2024-02-14T10:41:50;100561.03;;;8.31;72.22
64853;BME280;56050;55.558;-4.644;2024-02-14T10:44:16;100565.63;;;8.34;72.26
64853;BME280;56050;55.558;-4.644;2024-02-14T10:46:42;100563.72;;;8.35;72.41
64853;BME280;56050;55.558;-4.644;2024-02-14T10:49:10;100559.88;;;8.36;72.49
64853;BME280;56050;55.558;-4.644;2024-02-14T10:51:38;100565.25;;;8.36;72.42
64853;BME280;56050;55.558;-4.644;2024-02-14T10:54:12;100565.25;;;8.36;72.82
64853;BME280;56050;55.558;-4.644;2024-02-14T10:56:42;100571.00;;;8.38;72.75
64853;BME280;56050;55.558;-4.644;2024-02-14T10:59:09;100567.59;;;8.41;72.94
64853;BME280;56050;55.558;-4.644;2024-02-14T11:01:37;100569.53;;;8.44;72.97
64853;BME280;56050;55.558;-4.644;2024-02-14T11:04:03;100576.81;;;8.47;72.93
64853;BME280;56050;55.558;-4.644;2024-02-14T11:06:30;100581.06;;;8.48;72.90
64853;BME280;56050;55.558;-4.644;2024-02-14T11:08:58;100581.84;;;8.52;72.93
64853;BME280;56050;55.558;-4.644;2024-02-14T11:11:28;100578.03;;;8.53;72.90
64853;BME280;56050;55.558;-4.644;2024-02-14T11:13:56;100572.25;;;8.54;72.92
64853;BME280;56050;55.558;-4.644;2024-02-14T11:16:25;100573.06;;;8.58;72.92
64853;BME280;56050;55.558;-4.644;2024-02-14T11:18:53;100577.69;;;8.61;72.96
64853;BME280;56050;55.558;-4.644;2024-02-14T11:21:19;100581.13;;;8.62;72.92
64853;BME280;56050;55.558;-4.644;2024-02-14T11:23:54;100571.53;;;8.64;72.95
64853;BME280;56050;55.558;-4.644;2024-02-14T11:26:19;100575.03;;;8.68;72.95
64853;BME280;56050;55.558;-4.644;2024-02-14T11:28:45;100579.25;;;8.69;72.91
64853;BME280;56050;55.558;-4.644;2024-02-14T11:31:10;100593.84;;;8.72;72.84
64853;BME280;56050;55.558;-4.644;2024-02-14T11:33:36;100592.31;;;8.74;72.93
64853;BME280;56050;55.558;-4.644;2024-02-14T11:36:08;100591.16;;;8.72;72.94
64853;BME280;56050;55.558;-4.644;2024-02-14T11:38:36;100579.66;;;8.71;72.97
64853;BME280;56050;55.558;-4.644;2024-02-14T11:41:01;100579.25;;;8.73;73.02
64853;BME280;56050;55.558;-4.644;2024-02-14T11:43:29;100576.56;;;8.73;73.15
64853;BME280;56050;55.558;-4.644;2024-02-14T11:45:54;100573.13;;;8.76;73.20
64853;BME280;56050;55.558;-4.644;2024-02-14T11:48:20;100576.22;;;8.78;73.25
64853;BME280;56050;55.558;-4.644;2024-02-14T11:50:47;100570.47;;;8.79;73.40
64853;BME280;56050;55.558;-4.644;2024-02-14T11:53:14;100562.44;;;8.83;73.28
64853;BME280;56050;55.558;-4.644;2024-02-14T11:55:42;100559.34;;;8.84;73.33
64853;BME280;56050;55.558;-4.644;2024-02-14T11:58:08;100570.50;;;8.90;73.27
64853;BME280;56050;55.558;-4.644;2024-02-14T12:00:37;100564.78;;;8.92;73.40
64853;BME280;56050;55.558;-4.644;2024-02-14T12:03:05;100561.69;;;8.93;73.27
64853;BME280;56050;55.558;-4.644;2024-02-14T12:05:32;100570.91;;;8.96;73.30
64853;BME280;56050;55.558;-4.644;2024-02-14T12:07:59;100566.34;;;9.00;73.39
64853;BME280;56050;55.558;-4.644;2024-02-14T12:10:25;100557.88;;;9.01;73.31
64853;BME280;56050;55.558;-4.644;2024-02-14T12:12:50;100562.53;;;9.08;73.28
64853;BME280;56050;55.558;-4.644;2024-02-14T12:15:16;100568.28;;;9.10;73.29
64853;BME280;56050;55.558;-4.644;2024-02-14T12:17:42;100564.47;;;9.11;73.24
64853;BME280;56050;55.558;-4.644;2024-02-14T12:20:08;100568.69;;;9.19;73.19
64853;BME280;56050;55.558;-4.644;2024-02-14T12:22:35;100566.38;;;9.21;73.15
64853;BME280;56050;55.558;-4.644;2024-02-14T12:25:00;100557.19;;;9.25;73.24
64853;BME280;56050;55.558;-4.644;2024-02-14T12:27:26;100560.25;;;9.31;73.10
64853;BME280;56050;55.558;-4.644;2024-02-14T12:29:51;100557.59;;;9.38;73.06
64853;BME280;56050;55.558;-4.644;2024-02-14T12:32:17;100564.16;;;9.44;72.96
64853;BME280;56050;55.558;-4.644;2024-02-14T12:34:44;100566.06;;;9.47;73.10
64853;BME280;56050;55.558;-4.644;2024-02-14T12:37:10;100559.53;;;9.52;72.92
64853;BME280;56050;55.558;-4.644;2024-02-14T12:39:37;100555.69;;;9.56;73.05
64853;BME280;56050;55.558;-4.644;2024-02-14T12:42:03;100547.63;;;9.60;72.68
64853;BME280;56050;55.558;-4.644;2024-02-14T12:44:28;100545.75;;;9.64;72.86